Thunderstorms From: 20-05-2018 15:00 Until: 21-05-2018 15:00 warning for: Thunderstorms Level: Yellow info button

Although rather usual in this region, locally or potentially dangerous phenomena are expected. (such as local winds, summer thunderstorms, rising streams or high waves) Be aware and pay attention to the latest weather updates, especially if you carry out activities exposed to weather or close to a stream or shoreline. 


Meteo18 Weather Cam more information Meteo18 Weather Cam


warning for Thunderstorms more information blitzortung!


Rain radar more information rain snow radar


Visit our other weather sites:

Template documentation
and downloads

And another site



Weather Underground History page Text

Daily Summary for February 10, 2017 Units:  Both    English   Metric
« Previous Day
Next Day »
Daily Weekly Monthly Yearly Custom
  High: Low: Average:
Temperature: TemperatureC °F /  -17.8 °C -0.8 °F /  -18.2 °C 1.7 °F /  -16.8 °C
Dew Point: DewpointC °F /  -17.8 °C -2.2 °F /  -19 °C -0.1 °F /  -17.8 °C
Humidity: Humidity % 81 % 88 %
Wind Speed: WindSpeedKMH mph /  0 km/h - 4.1 mph /  6.6 km/h
Wind Gust: WindSpeedGustKMH mph /  0 km/h - -
Wind:- - South
Pressure: PressurehPa in /  0 hPa 1016.8 in /  34428.8 hPa -
Precipitation: 0.0 in /  0 mm    
Historical Graphs
 
 
Tabular Data for February 10, 2017
Time Temperature Dew Point Pressure Wind Wind Speed Wind Gust Humidity Rainfall Rate (Hourly)
TemperatureC °F /  -17.8 °C DewpointC °F /  -17.8 °C PressurehPa in /  0 hPa Calm     Humidity % HourlyPrecipMM in /  0 mm
00:07 0.3 °F /  -17.6 °C -1.3 °F /  -18.5 °C 1018.8 in /  34496.6 hPa Calm   6.4 mph /  10.3 km/h 89 % 0.0 in /  0 mm
00:12 0.2 °F /  -17.7 °C -1.4 °F /  -18.6 °C 1018.8 in /  34496.6 hPa Calm   1.6 mph /  2.6 km/h 89 % 0.0 in /  0 mm
00:17 0.2 °F /  -17.7 °C -1.4 °F /  -18.6 °C 1018.8 in /  34496.6 hPa Calm   1.6 mph /  2.6 km/h 89 % 0.0 in /  0 mm
00:22 0.2 °F /  -17.7 °C -1.4 °F /  -18.6 °C 1018.8 in /  34496.6 hPa Calm   1.6 mph /  2.6 km/h 89 % 0.0 in /  0 mm
00:27 0.3 °F /  -17.6 °C -1.3 °F /  -18.5 °C 1018.8 in /  34496.6 hPa NNW 1.6 mph /  2.6 km/h 3.2 mph /  5.1 km/h 89 % 0.0 in /  0 mm
00:32 0.3 °F /  -17.6 °C -1.3 °F /  -18.5 °C 1018.8 in /  34496.6 hPa NNW 1.6 mph /  2.6 km/h 3.2 mph /  5.1 km/h 89 % 0.0 in /  0 mm
00:42 0.4 °F /  -17.6 °C -1.4 °F /  -18.6 °C 1018.8 in /  34496.6 hPa NNW 1.6 mph /  2.6 km/h 6.4 mph /  10.3 km/h 88 % 0.0 in /  0 mm
00:57 0.6 °F /  -17.4 °C -1.2 °F /  -18.4 °C 1018.8 in /  34496.6 hPa NNW 6.4 mph /  10.3 km/h 8.0 mph /  12.9 km/h 88 % 0.0 in /  0 mm
01:02 0.6 °F /  -17.4 °C -1.3 °F /  -18.5 °C 1018.8 in /  34496.6 hPa North 3.2 mph /  5.1 km/h 8.0 mph /  12.9 km/h 87 % 0.0 in /  0 mm
01:17 0.6 °F /  -17.4 °C -1.3 °F /  -18.5 °C 1018.8 in /  34496.6 hPa North 4.8 mph /  7.7 km/h 8.0 mph /  12.9 km/h 87 % 0.0 in /  0 mm
01:27 0.6 °F /  -17.4 °C -1.2 °F /  -18.4 °C 1018.8 in /  34496.6 hPa North 1.6 mph /  2.6 km/h 8.0 mph /  12.9 km/h 88 % 0.0 in /  0 mm
01:32 0.6 °F /  -17.4 °C -1.2 °F /  -18.4 °C 1018.8 in /  34496.6 hPa North 3.2 mph /  5.1 km/h 8.0 mph /  12.9 km/h 88 % 0.0 in /  0 mm
01:37 0.6 °F /  -17.4 °C -1.3 °F /  -18.5 °C 1018.5 in /  34486.4 hPa North 1.6 mph /  2.6 km/h 6.4 mph /  10.3 km/h 87 % 0.0 in /  0 mm
02:02 0.6 °F /  -17.4 °C -1.3 °F /  -18.5 °C 1018.5 in /  34486.4 hPa Calm   8.0 mph /  12.9 km/h 87 % 0.0 in /  0 mm
02:07 0.5 °F /  -17.5 °C -1.3 °F /  -18.5 °C 1018.5 in /  34486.4 hPa NE 4.8 mph /  7.7 km/h 8.0 mph /  12.9 km/h 88 % 0.0 in /  0 mm
02:22 0.4 °F /  -17.6 °C -1.5 °F /  -18.6 °C 1018.2 in /  34476.3 hPa NE 1.6 mph /  2.6 km/h 8.0 mph /  12.9 km/h 87 % 0.0 in /  0 mm
02:27 0.4 °F /  -17.6 °C -1.5 °F /  -18.6 °C 1018.2 in /  34476.3 hPa NNW 4.8 mph /  7.7 km/h 8.0 mph /  12.9 km/h 87 % 0.0 in /  0 mm
02:37 0.4 °F /  -17.6 °C -1.5 °F /  -18.6 °C 1018.2 in /  34476.3 hPa NNE 4.8 mph /  7.7 km/h 8.0 mph /  12.9 km/h 87 % 0.0 in /  0 mm
02:47 0.3 °F /  -17.6 °C -1.5 °F /  -18.6 °C 1018.2 in /  34476.3 hPa NNE 4.8 mph /  7.7 km/h 9.7 mph /  15.6 km/h 88 % 0.0 in /  0 mm
02:52 0.3 °F /  -17.6 °C -1.5 °F /  -18.6 °C 1018.2 in /  34476.3 hPa NE 1.6 mph /  2.6 km/h 11.3 mph /  18.2 km/h 88 % 0.0 in /  0 mm
02:57 0.3 °F /  -17.6 °C -1.5 °F /  -18.6 °C 1018.2 in /  34476.3 hPa NE 11.3 mph /  18.2 km/h 11.3 mph /  18.2 km/h 88 % 0.0 in /  0 mm
03:02 0.3 °F /  -17.6 °C -1.5 °F /  -18.6 °C 1018.2 in /  34476.3 hPa NE 3.2 mph /  5.1 km/h 12.9 mph /  20.8 km/h 88 % 0.0 in /  0 mm
03:07 0.2 °F /  -17.7 °C -1.6 °F /  -18.7 °C 1018.2 in /  34476.3 hPa North 4.8 mph /  7.7 km/h 12.9 mph /  20.8 km/h 88 % 0.0 in /  0 mm
03:12 0.2 °F /  -17.7 °C -1.6 °F /  -18.7 °C 1017.8 in /  34462.7 hPa North 6.4 mph /  10.3 km/h 12.9 mph /  20.8 km/h 88 % 0.0 in /  0 mm
03:17 0.2 °F /  -17.7 °C -1.6 °F /  -18.7 °C 1017.8 in /  34462.7 hPa NNE 4.8 mph /  7.7 km/h 11.3 mph /  18.2 km/h 88 % 0.0 in /  0 mm
03:22 0.1 °F /  -17.7 °C -1.7 °F /  -18.7 °C 1017.8 in /  34462.7 hPa North 3.2 mph /  5.1 km/h 9.7 mph /  15.6 km/h 88 % 0.0 in /  0 mm
03:27 0.1 °F /  -17.7 °C -1.5 °F /  -18.6 °C 1017.8 in /  34462.7 hPa North 1.6 mph /  2.6 km/h 9.7 mph /  15.6 km/h 89 % 0.0 in /  0 mm
03:32 0.0 °F /  -17.8 °C -1.6 °F /  -18.7 °C 1017.8 in /  34462.7 hPa NNW 6.4 mph /  10.3 km/h 9.7 mph /  15.6 km/h 89 % 0.0 in /  0 mm
03:37 0.0 °F /  -17.8 °C -1.6 °F /  -18.7 °C 1017.8 in /  34462.7 hPa North 3.2 mph /  5.1 km/h 12.9 mph /  20.8 km/h 89 % 0.0 in /  0 mm
03:42 -0.1 °F /  -17.8 °C -1.7 °F /  -18.7 °C 1017.8 in /  34462.7 hPa North 1.6 mph /  2.6 km/h 12.9 mph /  20.8 km/h 89 % 0.0 in /  0 mm
03:47 -0.2 °F /  -17.9 °C -1.8 °F /  -18.8 °C 1017.5 in /  34452.6 hPa Calm   12.9 mph /  20.8 km/h 89 % 0.0 in /  0 mm
03:52 -0.2 °F /  -17.9 °C -1.6 °F /  -18.7 °C 1017.8 in /  34462.7 hPa North 3.2 mph /  5.1 km/h 8.0 mph /  12.9 km/h 90 % 0.0 in /  0 mm
03:57 -0.3 °F /  -17.9 °C -1.7 °F /  -18.7 °C 1017.5 in /  34452.6 hPa North 3.2 mph /  5.1 km/h 8.0 mph /  12.9 km/h 90 % 0.0 in /  0 mm
04:02 -0.3 °F /  -17.9 °C -1.7 °F /  -18.7 °C 1017.5 in /  34452.6 hPa North 3.2 mph /  5.1 km/h 8.0 mph /  12.9 km/h 90 % 0.0 in /  0 mm
04:07 -0.4 °F /  -18 °C -1.8 °F /  -18.8 °C 1017.5 in /  34452.6 hPa NNE 1.6 mph /  2.6 km/h 8.0 mph /  12.9 km/h 90 % 0.0 in /  0 mm
04:12 -0.5 °F /  -18.1 °C -1.9 °F /  -18.8 °C 1017.5 in /  34452.6 hPa Calm   8.0 mph /  12.9 km/h 90 % 0.0 in /  0 mm
04:17 -0.6 °F /  -18.1 °C -2.0 °F /  -18.9 °C 1017.5 in /  34452.6 hPa North 3.2 mph /  5.1 km/h 6.4 mph /  10.3 km/h 90 % 0.0 in /  0 mm
04:22 -0.6 °F /  -18.1 °C -2.0 °F /  -18.9 °C 1017.5 in /  34452.6 hPa North 4.8 mph /  7.7 km/h 8.0 mph /  12.9 km/h 90 % 0.0 in /  0 mm
04:27 -0.6 °F /  -18.1 °C -2.0 °F /  -18.9 °C 1017.5 in /  34452.6 hPa North 1.6 mph /  2.6 km/h 8.0 mph /  12.9 km/h 90 % 0.0 in /  0 mm
04:32 -0.6 °F /  -18.1 °C -2.0 °F /  -18.9 °C 1017.5 in /  34452.6 hPa North 1.6 mph /  2.6 km/h 8.0 mph /  12.9 km/h 90 % 0.0 in /  0 mm
04:37 -0.7 °F /  -18.2 °C -2.1 °F /  -18.9 °C 1017.2 in /  34442.4 hPa NNE 3.2 mph /  5.1 km/h 8.0 mph /  12.9 km/h 90 % 0.0 in /  0 mm
04:42 -0.7 °F /  -18.2 °C -2.1 °F /  -18.9 °C 1017.2 in /  34442.4 hPa Calm   6.4 mph /  10.3 km/h 90 % 0.0 in /  0 mm
04:47 -0.8 °F /  -18.2 °C -2.2 °F /  -19 °C 1017.5 in /  34452.6 hPa NNW 1.6 mph /  2.6 km/h 6.4 mph /  10.3 km/h 90 % 0.0 in /  0 mm
04:52 -0.8 °F /  -18.2 °C -2.1 °F /  -18.9 °C 1017.5 in /  34452.6 hPa Calm   6.4 mph /  10.3 km/h 91 % 0.0 in /  0 mm
04:57 -0.8 °F /  -18.2 °C -2.1 °F /  -18.9 °C 1017.5 in /  34452.6 hPa Calm   11.3 mph /  18.2 km/h 91 % 0.0 in /  0 mm
05:02 -0.7 °F /  -18.2 °C -2.1 °F /  -18.9 °C 1017.5 in /  34452.6 hPa Calm   11.3 mph /  18.2 km/h 90 % 0.0 in /  0 mm
05:07 -0.8 °F /  -18.2 °C -2.2 °F /  -19 °C 1017.5 in /  34452.6 hPa North 1.6 mph /  2.6 km/h 11.3 mph /  18.2 km/h 90 % 0.0 in /  0 mm
05:12 -0.8 °F /  -18.2 °C -2.2 °F /  -19 °C 1017.5 in /  34452.6 hPa NE 3.2 mph /  5.1 km/h 11.3 mph /  18.2 km/h 90 % 0.0 in /  0 mm
05:17 -0.7 °F /  -18.2 °C -2.0 °F /  -18.9 °C 1017.5 in /  34452.6 hPa NNE 1.6 mph /  2.6 km/h 6.4 mph /  10.3 km/h 91 % 0.0 in /  0 mm
05:22 -0.7 °F /  -18.2 °C -2.0 °F /  -18.9 °C 1017.5 in /  34452.6 hPa NNW 1.6 mph /  2.6 km/h 4.8 mph /  7.7 km/h 91 % 0.0 in /  0 mm
05:27 -0.6 °F /  -18.1 °C -2.0 °F /  -18.9 °C 1017.5 in /  34452.6 hPa NNE 1.6 mph /  2.6 km/h 3.2 mph /  5.1 km/h 90 % 0.0 in /  0 mm
05:32 -0.6 °F /  -18.1 °C -2.0 °F /  -18.9 °C 1017.5 in /  34452.6 hPa Calm   3.2 mph /  5.1 km/h 90 % 0.0 in /  0 mm
05:37 -0.6 °F /  -18.1 °C -2.0 °F /  -18.9 °C 1017.5 in /  34452.6 hPa NNW 1.6 mph /  2.6 km/h 4.8 mph /  7.7 km/h 90 % 0.0 in /  0 mm
05:42 -0.4 °F /  -18 °C -1.8 °F /  -18.8 °C 1017.5 in /  34452.6 hPa North 1.6 mph /  2.6 km/h 4.8 mph /  7.7 km/h 90 % 0.0 in /  0 mm
05:47 -0.4 °F /  -18 °C -1.8 °F /  -18.8 °C 1017.5 in /  34452.6 hPa Calm   6.4 mph /  10.3 km/h 90 % 0.0 in /  0 mm
05:52 -0.3 °F /  -17.9 °C -1.7 °F /  -18.7 °C 1017.5 in /  34452.6 hPa Calm   6.4 mph /  10.3 km/h 90 % 0.0 in /  0 mm
05:57 -0.3 °F /  -17.9 °C -1.7 °F /  -18.7 °C 1017.5 in /  34452.6 hPa NNW 1.6 mph /  2.6 km/h 4.8 mph /  7.7 km/h 90 % 0.0 in /  0 mm
06:02 -0.2 °F /  -17.9 °C -1.6 °F /  -18.7 °C 1017.5 in /  34452.6 hPa NNE 1.6 mph /  2.6 km/h 4.8 mph /  7.7 km/h 90 % 0.0 in /  0 mm
06:07 -0.2 °F /  -17.9 °C -1.8 °F /  -18.8 °C 1017.5 in /  34452.6 hPa NNW 1.6 mph /  2.6 km/h 4.8 mph /  7.7 km/h 89 % 0.0 in /  0 mm
06:12 -0.2 °F /  -17.9 °C -1.8 °F /  -18.8 °C 1017.5 in /  34452.6 hPa North 3.2 mph /  5.1 km/h 4.8 mph /  7.7 km/h 89 % 0.0 in /  0 mm
06:17 -0.2 °F /  -17.9 °C -1.8 °F /  -18.8 °C 1017.5 in /  34452.6 hPa Calm   4.8 mph /  7.7 km/h 89 % 0.0 in /  0 mm
06:22 -0.1 °F /  -17.8 °C -1.7 °F /  -18.7 °C 1017.5 in /  34452.6 hPa NE 1.6 mph /  2.6 km/h 4.8 mph /  7.7 km/h 89 % 0.0 in /  0 mm
06:27 -0.1 °F /  -17.8 °C -1.7 °F /  -18.7 °C 1017.5 in /  34452.6 hPa Calm   4.8 mph /  7.7 km/h 89 % 0.0 in /  0 mm
06:32 -0.1 °F /  -17.8 °C -1.7 °F /  -18.7 °C 1017.5 in /  34452.6 hPa NE 3.2 mph /  5.1 km/h 8.0 mph /  12.9 km/h 89 % 0.0 in /  0 mm
06:37 -0.1 °F /  -17.8 °C -1.7 °F /  -18.7 °C 1017.5 in /  34452.6 hPa NNE 1.6 mph /  2.6 km/h 8.0 mph /  12.9 km/h 89 % 0.0 in /  0 mm
06:42 -0.1 °F /  -17.8 °C -1.7 °F /  -18.7 °C 1017.2 in /  34442.4 hPa NNW 3.2 mph /  5.1 km/h 8.0 mph /  12.9 km/h 89 % 0.0 in /  0 mm
06:47 -0.1 °F /  -17.8 °C -1.7 °F /  -18.7 °C 1017.2 in /  34442.4 hPa NE 6.4 mph /  10.3 km/h 8.0 mph /  12.9 km/h 89 % 0.0 in /  0 mm
06:52 -0.1 °F /  -17.8 °C -1.7 °F /  -18.7 °C 1017.2 in /  34442.4 hPa NNE 3.2 mph /  5.1 km/h 8.0 mph /  12.9 km/h 89 % 0.0 in /  0 mm
06:57 -0.1 °F /  -17.8 °C -1.7 °F /  -18.7 °C 1017.2 in /  34442.4 hPa North 1.6 mph /  2.6 km/h 9.7 mph /  15.6 km/h 89 % 0.0 in /  0 mm
07:02 -0.1 °F /  -17.8 °C -1.7 °F /  -18.7 °C 1017.2 in /  34442.4 hPa NE 1.6 mph /  2.6 km/h 9.7 mph /  15.6 km/h 89 % 0.0 in /  0 mm
07:12 -0.2 °F /  -17.9 °C -1.8 °F /  -18.8 °C 1017.2 in /  34442.4 hPa Calm   11.3 mph /  18.2 km/h 89 % 0.0 in /  0 mm
07:17 -0.2 °F /  -17.9 °C -1.8 °F /  -18.8 °C 1017.2 in /  34442.4 hPa North 3.2 mph /  5.1 km/h 12.9 mph /  20.8 km/h 89 % 0.0 in /  0 mm
07:22 -0.2 °F /  -17.9 °C -1.8 °F /  -18.8 °C 1017.2 in /  34442.4 hPa NW 1.6 mph /  2.6 km/h 12.9 mph /  20.8 km/h 89 % 0.0 in /  0 mm
07:27 -0.2 °F /  -17.9 °C -1.8 °F /  -18.8 °C 1017.2 in /  34442.4 hPa NE 4.8 mph /  7.7 km/h 11.3 mph /  18.2 km/h 89 % 0.0 in /  0 mm
07:32 -0.2 °F /  -17.9 °C -1.8 °F /  -18.8 °C 1017.2 in /  34442.4 hPa NNW 6.4 mph /  10.3 km/h 11.3 mph /  18.2 km/h 89 % 0.0 in /  0 mm
07:37 -0.2 °F /  -17.9 °C -1.8 °F /  -18.8 °C 1017.2 in /  34442.4 hPa NNW 3.2 mph /  5.1 km/h 11.3 mph /  18.2 km/h 89 % 0.0 in /  0 mm
07:42 -0.2 °F /  -17.9 °C -1.8 °F /  -18.8 °C 1017.2 in /  34442.4 hPa NE 3.2 mph /  5.1 km/h 11.3 mph /  18.2 km/h 89 % 0.0 in /  0 mm
07:47 -0.2 °F /  -17.9 °C -1.8 °F /  -18.8 °C 1017.2 in /  34442.4 hPa NNW 3.2 mph /  5.1 km/h 8.0 mph /  12.9 km/h 89 % 0.0 in /  0 mm
07:57 -0.2 °F /  -17.9 °C -1.8 °F /  -18.8 °C 1017.2 in /  34442.4 hPa NNE 4.8 mph /  7.7 km/h 12.9 mph /  20.8 km/h 89 % 0.0 in /  0 mm
08:02 -0.2 °F /  -17.9 °C -1.8 °F /  -18.8 °C 1017.5 in /  34452.6 hPa NNE 1.6 mph /  2.6 km/h 12.9 mph /  20.8 km/h 89 % 0.0 in /  0 mm
08:07 -0.2 °F /  -17.9 °C -1.8 °F /  -18.8 °C 1017.5 in /  34452.6 hPa North 6.4 mph /  10.3 km/h 9.7 mph /  15.6 km/h 89 % 0.0 in /  0 mm
08:12 -0.1 °F /  -17.8 °C -1.7 °F /  -18.7 °C 1017.5 in /  34452.6 hPa NE 4.8 mph /  7.7 km/h 9.7 mph /  15.6 km/h 89 % 0.0 in /  0 mm
08:17 -0.1 °F /  -17.8 °C -1.7 °F /  -18.7 °C 1017.5 in /  34452.6 hPa NE 8.0 mph /  12.9 km/h 9.7 mph /  15.6 km/h 89 % 0.0 in /  0 mm
08:22 -0.1 °F /  -17.8 °C -1.7 °F /  -18.7 °C 1017.5 in /  34452.6 hPa NNE 4.8 mph /  7.7 km/h 9.7 mph /  15.6 km/h 89 % 0.0 in /  0 mm
08:27 -0.1 °F /  -17.8 °C -1.7 °F /  -18.7 °C 1017.5 in /  34452.6 hPa NE 6.4 mph /  10.3 km/h 12.9 mph /  20.8 km/h 89 % 0.0 in /  0 mm
08:32 -0.2 °F /  -17.9 °C -1.8 °F /  -18.8 °C 1017.5 in /  34452.6 hPa NNE 9.7 mph /  15.6 km/h 12.9 mph /  20.8 km/h 89 % 0.0 in /  0 mm
08:37 -0.2 °F /  -17.9 °C -1.8 °F /  -18.8 °C 1017.5 in /  34452.6 hPa NE 6.4 mph /  10.3 km/h 12.9 mph /  20.8 km/h 89 % 0.0 in /  0 mm
08:42 -0.2 °F /  -17.9 °C -1.8 °F /  -18.8 °C 1017.8 in /  34462.7 hPa Calm   12.9 mph /  20.8 km/h 89 % 0.0 in /  0 mm
08:47 -0.1 °F /  -17.8 °C -1.5 °F /  -18.6 °C 1017.8 in /  34462.7 hPa North 1.6 mph /  2.6 km/h 12.9 mph /  20.8 km/h 90 % 0.0 in /  0 mm
08:57 -0.1 °F /  -17.8 °C -1.5 °F /  -18.6 °C 1017.8 in /  34462.7 hPa NNE 3.2 mph /  5.1 km/h 11.3 mph /  18.2 km/h 90 % 0.0 in /  0 mm
09:02 -0.1 °F /  -17.8 °C -1.5 °F /  -18.6 °C 1017.8 in /  34462.7 hPa NNW 4.8 mph /  7.7 km/h 11.3 mph /  18.2 km/h 90 % 0.0 in /  0 mm
09:07 -0.1 °F /  -17.8 °C -1.5 °F /  -18.6 °C 1017.5 in /  34452.6 hPa NE 6.4 mph /  10.3 km/h 11.3 mph /  18.2 km/h 90 % 0.0 in /  0 mm
09:12 -0.1 °F /  -17.8 °C -1.5 °F /  -18.6 °C 1017.8 in /  34462.7 hPa NNE 11.3 mph /  18.2 km/h 11.3 mph /  18.2 km/h 90 % 0.0 in /  0 mm
09:17 -0.1 °F /  -17.8 °C -1.5 °F /  -18.6 °C 1017.8 in /  34462.7 hPa NNE 1.6 mph /  2.6 km/h 16.1 mph /  25.9 km/h 90 % 0.0 in /  0 mm
09:27 0.0 °F /  -17.8 °C -1.4 °F /  -18.6 °C 1017.5 in /  34452.6 hPa NNW 9.7 mph /  15.6 km/h 12.9 mph /  20.8 km/h 90 % 0.0 in /  0 mm
09:32 0.0 °F /  -17.8 °C -1.4 °F /  -18.6 °C 1017.5 in /  34452.6 hPa NNE 3.2 mph /  5.1 km/h 12.9 mph /  20.8 km/h 90 % 0.0 in /  0 mm
09:37 0.1 °F /  -17.7 °C -1.3 °F /  -18.5 °C 1017.5 in /  34452.6 hPa NW 6.4 mph /  10.3 km/h 12.9 mph /  20.8 km/h 90 % 0.0 in /  0 mm
09:42 0.1 °F /  -17.7 °C -1.3 °F /  -18.5 °C 1017.8 in /  34462.7 hPa NE 3.2 mph /  5.1 km/h 12.9 mph /  20.8 km/h 90 % 0.0 in /  0 mm
09:47 0.2 °F /  -17.7 °C -1.2 °F /  -18.4 °C 1017.8 in /  34462.7 hPa NNE 1.6 mph /  2.6 km/h 11.3 mph /  18.2 km/h 90 % 0.0 in /  0 mm
09:52 0.2 °F /  -17.7 °C -1.2 °F /  -18.4 °C 1017.8 in /  34462.7 hPa NNE 3.2 mph /  5.1 km/h 11.3 mph /  18.2 km/h 90 % 0.0 in /  0 mm
09:57 0.2 °F /  -17.7 °C -1.2 °F /  -18.4 °C 1017.8 in /  34462.7 hPa NE 8.0 mph /  12.9 km/h 11.3 mph /  18.2 km/h 90 % 0.0 in /  0 mm
10:02 0.3 °F /  -17.6 °C -1.1 °F /  -18.4 °C 1017.8 in /  34462.7 hPa NNE 6.4 mph /  10.3 km/h 11.3 mph /  18.2 km/h 90 % 0.0 in /  0 mm
10:07 0.4 °F /  -17.6 °C -1.0 °F /  -18.3 °C 1017.8 in /  34462.7 hPa NNE 3.2 mph /  5.1 km/h 11.3 mph /  18.2 km/h 90 % 0.0 in /  0 mm
10:12 0.4 °F /  -17.6 °C -1.0 °F /  -18.3 °C 1017.8 in /  34462.7 hPa NNW 1.6 mph /  2.6 km/h 11.3 mph /  18.2 km/h 90 % 0.0 in /  0 mm
10:17 0.6 °F /  -17.4 °C -0.9 °F /  -18.3 °C 1017.8 in /  34462.7 hPa North 1.6 mph /  2.6 km/h 11.3 mph /  18.2 km/h 90 % 0.0 in /  0 mm
10:22 0.7 °F /  -17.4 °C -0.9 °F /  -18.3 °C 1017.8 in /  34462.7 hPa Calm   6.4 mph /  10.3 km/h 89 % 0.0 in /  0 mm
10:27 0.7 °F /  -17.4 °C -0.9 °F /  -18.3 °C 1017.8 in /  34462.7 hPa Calm   6.4 mph /  10.3 km/h 89 % 0.0 in /  0 mm
10:32 0.8 °F /  -17.3 °C -0.8 °F /  -18.2 °C 1017.8 in /  34462.7 hPa North 1.6 mph /  2.6 km/h 3.2 mph /  5.1 km/h 89 % 0.0 in /  0 mm
10:37 0.8 °F /  -17.3 °C -0.8 °F /  -18.2 °C 1017.8 in /  34462.7 hPa Calm   3.2 mph /  5.1 km/h 89 % 0.0 in /  0 mm
10:42 0.9 °F /  -17.3 °C -0.7 °F /  -18.2 °C 1017.8 in /  34462.7 hPa NNE 3.2 mph /  5.1 km/h 3.2 mph /  5.1 km/h 89 % 0.0 in /  0 mm
10:47 1.0 °F /  -17.2 °C -0.8 °F /  -18.2 °C 1017.8 in /  34462.7 hPa Calm   4.8 mph /  7.7 km/h 88 % 0.0 in /  0 mm
10:52 1.2 °F /  -17.1 °C -0.4 °F /  -18 °C 1017.8 in /  34462.7 hPa NNW 1.6 mph /  2.6 km/h 4.8 mph /  7.7 km/h 89 % 0.0 in /  0 mm
10:57 1.3 °F /  -17.1 °C -0.5 °F /  -18.1 °C 1017.8 in /  34462.7 hPa North 1.6 mph /  2.6 km/h 4.8 mph /  7.7 km/h 88 % 0.0 in /  0 mm
11:02 1.5 °F /  -16.9 °C -0.3 °F /  -17.9 °C 1017.8 in /  34462.7 hPa North 3.2 mph /  5.1 km/h 6.4 mph /  10.3 km/h 88 % 0.0 in /  0 mm
11:07 1.5 °F /  -16.9 °C -0.4 °F /  -18 °C 1017.8 in /  34462.7 hPa NNW 3.2 mph /  5.1 km/h 6.4 mph /  10.3 km/h 87 % 0.0 in /  0 mm
11:12 1.6 °F /  -16.9 °C -0.2 °F /  -17.9 °C 1017.8 in /  34462.7 hPa NNW 3.2 mph /  5.1 km/h 6.4 mph /  10.3 km/h 88 % 0.0 in /  0 mm
11:17 1.7 °F /  -16.8 °C -0.1 °F /  -17.8 °C 1017.8 in /  34462.7 hPa North 1.6 mph /  2.6 km/h 8.0 mph /  12.9 km/h 88 % 0.0 in /  0 mm
11:22 1.9 °F /  -16.7 °C 0.1 °F /  -17.7 °C 1017.8 in /  34462.7 hPa North 1.6 mph /  2.6 km/h 8.0 mph /  12.9 km/h 88 % 0.0 in /  0 mm
11:27 2.1 °F /  -16.6 °C 0.3 °F /  -17.6 °C 1017.8 in /  34462.7 hPa Calm   8.0 mph /  12.9 km/h 88 % 0.0 in /  0 mm
11:32 2.3 °F /  -16.5 °C 0.4 °F /  -17.6 °C 1017.8 in /  34462.7 hPa NNE 1.6 mph /  2.6 km/h 8.0 mph /  12.9 km/h 87 % 0.0 in /  0 mm
11:42 2.7 °F /  -16.3 °C 0.6 °F /  -17.4 °C 1017.5 in /  34452.6 hPa NE 4.8 mph /  7.7 km/h 8.0 mph /  12.9 km/h 86 % 0.0 in /  0 mm
11:47 2.9 °F /  -16.2 °C 0.8 °F /  -17.3 °C 1017.5 in /  34452.6 hPa North 4.8 mph /  7.7 km/h 8.0 mph /  12.9 km/h 86 % 0.0 in /  0 mm
11:52 3.3 °F /  -15.9 °C 1.2 °F /  -17.1 °C 1017.5 in /  34452.6 hPa North 6.4 mph /  10.3 km/h 9.7 mph /  15.6 km/h 86 % 0.0 in /  0 mm
12:02 3.4 °F /  -15.9 °C 1.1 °F /  -17.2 °C 1017.5 in /  34452.6 hPa East 1.6 mph /  2.6 km/h 9.7 mph /  15.6 km/h 85 % 0.0 in /  0 mm
12:07 3.6 °F /  -15.8 °C 1.3 °F /  -17.1 °C 1017.5 in /  34452.6 hPa NNW 1.6 mph /  2.6 km/h 9.7 mph /  15.6 km/h 85 % 0.0 in /  0 mm
12:12 3.6 °F /  -15.8 °C 1.2 °F /  -17.1 °C 1017.5 in /  34452.6 hPa ENE 4.8 mph /  7.7 km/h 9.7 mph /  15.6 km/h 84 % 0.0 in /  0 mm
12:17 3.6 °F /  -15.8 °C 1.0 °F /  -17.2 °C 1017.5 in /  34452.6 hPa Calm   11.3 mph /  18.2 km/h 83 % 0.0 in /  0 mm
12:22 3.7 °F /  -15.7 °C 1.4 °F /  -17 °C 1017.5 in /  34452.6 hPa NNE 8.0 mph /  12.9 km/h 11.3 mph /  18.2 km/h 85 % 0.0 in /  0 mm
12:27 3.6 °F /  -15.8 °C 1.0 °F /  -17.2 °C 1017.5 in /  34452.6 hPa North 8.0 mph /  12.9 km/h 11.3 mph /  18.2 km/h 83 % 0.0 in /  0 mm
12:32 3.6 °F /  -15.8 °C 1.2 °F /  -17.1 °C 1017.5 in /  34452.6 hPa Calm   11.3 mph /  18.2 km/h 84 % 0.0 in /  0 mm
12:37 3.7 °F /  -15.7 °C 1.2 °F /  -17.1 °C 1017.5 in /  34452.6 hPa NNE 8.0 mph /  12.9 km/h 12.9 mph /  20.8 km/h 84 % 0.0 in /  0 mm
12:42 3.7 °F /  -15.7 °C 1.2 °F /  -17.1 °C 1017.5 in /  34452.6 hPa NE 6.4 mph /  10.3 km/h 11.3 mph /  18.2 km/h 84 % 0.0 in /  0 mm
12:47 3.7 °F /  -15.7 °C 1.2 °F /  -17.1 °C 1017.2 in /  34442.4 hPa Calm   11.3 mph /  18.2 km/h 84 % 0.0 in /  0 mm
12:52 3.9 °F /  -15.6 °C 1.3 °F /  -17.1 °C 1017.2 in /  34442.4 hPa NNW 1.6 mph /  2.6 km/h 11.3 mph /  18.2 km/h 83 % 0.0 in /  0 mm
12:57 4.2 °F /  -15.4 °C 1.6 °F /  -16.9 °C 1017.5 in /  34452.6 hPa North 1.6 mph /  2.6 km/h 8.0 mph /  12.9 km/h 83 % 0.0 in /  0 mm
13:02 4.2 °F /  -15.4 °C 1.4 °F /  -17 °C 1017.5 in /  34452.6 hPa Calm   9.7 mph /  15.6 km/h 82 % 0.0 in /  0 mm
13:07 4.2 °F /  -15.4 °C 1.7 °F /  -16.8 °C 1017.5 in /  34452.6 hPa NW 3.2 mph /  5.1 km/h 9.7 mph /  15.6 km/h 84 % 0.0 in /  0 mm
13:12 4.3 °F /  -15.4 °C 1.5 °F /  -16.9 °C 1017.5 in /  34452.6 hPa North 3.2 mph /  5.1 km/h 9.7 mph /  15.6 km/h 82 % 0.0 in /  0 mm
13:17 4.2 °F /  -15.4 °C 1.4 °F /  -17 °C 1017.5 in /  34452.6 hPa NNW 6.4 mph /  10.3 km/h 6.4 mph /  10.3 km/h 82 % 0.0 in /  0 mm
13:22 4.3 °F /  -15.4 °C 1.7 °F /  -16.8 °C 1017.5 in /  34452.6 hPa WNW 3.2 mph /  5.1 km/h 6.4 mph /  10.3 km/h 83 % 0.0 in /  0 mm
13:27 4.4 °F /  -15.3 °C 1.6 °F /  -16.9 °C 1017.5 in /  34452.6 hPa NW 4.8 mph /  7.7 km/h 6.4 mph /  10.3 km/h 82 % 0.0 in /  0 mm
13:37 4.4 °F /  -15.3 °C 1.6 °F /  -16.9 °C 1017.2 in /  34442.4 hPa NNE 4.8 mph /  7.7 km/h 9.7 mph /  15.6 km/h 82 % 0.0 in /  0 mm
13:42 4.4 °F /  -15.3 °C 1.6 °F /  -16.9 °C 1017.2 in /  34442.4 hPa NNW 3.2 mph /  5.1 km/h 8.0 mph /  12.9 km/h 82 % 0.0 in /  0 mm
13:47 4.4 °F /  -15.3 °C 1.4 °F /  -17 °C 1017.2 in /  34442.4 hPa Calm   8.0 mph /  12.9 km/h 81 % 0.0 in /  0 mm
13:52 4.4 °F /  -15.3 °C 1.6 °F /  -16.9 °C 1017.2 in /  34442.4 hPa NE 12.9 mph /  20.8 km/h 12.9 mph /  20.8 km/h 82 % 0.0 in /  0 mm
13:57 4.3 °F /  -15.4 °C 1.7 °F /  -16.8 °C 1017.2 in /  34442.4 hPa NNW 9.7 mph /  15.6 km/h 16.1 mph /  25.9 km/h 83 % 0.0 in /  0 mm
14:02 4.3 °F /  -15.4 °C 1.5 °F /  -16.9 °C 1017.2 in /  34442.4 hPa NNW 9.7 mph /  15.6 km/h 16.1 mph /  25.9 km/h 82 % 0.0 in /  0 mm
14:07 4.4 °F /  -15.3 °C 1.8 °F /  -16.8 °C 1016.8 in /  34428.8 hPa NW 3.2 mph /  5.1 km/h 16.1 mph /  25.9 km/h 83 % 0.0 in /  0 mm
14:17 4.6 °F /  -15.2 °C 1.8 °F /  -16.8 °C 1016.8 in /  34428.8 hPa ENE 1.6 mph /  2.6 km/h 16.1 mph /  25.9 km/h 82 % 0.0 in /  0 mm
14:22 4.6 °F /  -15.2 °C 1.6 °F /  -16.9 °C 1016.8 in /  34428.8 hPa NE 8.0 mph /  12.9 km/h 16.1 mph /  25.9 km/h 81 % 0.0 in /  0 mm
14:27 4.6 °F /  -15.2 °C 1.8 °F /  -16.8 °C 1016.8 in /  34428.8 hPa NE 9.7 mph /  15.6 km/h 16.1 mph /  25.9 km/h 82 % 0.0 in /  0 mm
14:32 4.6 °F /  -15.2 °C 1.8 °F /  -16.8 °C 1016.8 in /  34428.8 hPa NNE 9.7 mph /  15.6 km/h 16.1 mph /  25.9 km/h 82 % 0.0 in /  0 mm
14:37 4.6 °F /  -15.2 °C 1.8 °F /  -16.8 °C 1016.8 in /  34428.8 hPa North 3.2 mph /  5.1 km/h 16.1 mph /  25.9 km/h 82 % 0.0 in /  0 mm
14:42 4.7 °F /  -15.2 °C 1.9 °F /  -16.7 °C 1016.8 in /  34428.8 hPa ENE 1.6 mph /  2.6 km/h 14.5 mph /  23.3 km/h 82 % 0.0 in /  0 mm
14:47 4.6 °F /  -15.2 °C 1.6 °F /  -16.9 °C 1016.8 in /  34428.8 hPa NNE 9.7 mph /  15.6 km/h 14.5 mph /  23.3 km/h 81 % 0.0 in /  0 mm
14:52 4.5 °F /  -15.3 °C 1.7 °F /  -16.8 °C 1016.8 in /  34428.8 hPa NNW 3.2 mph /  5.1 km/h 11.3 mph /  18.2 km/h 82 % 0.0 in /  0 mm
14:57 4.6 °F /  -15.2 °C 1.8 °F /  -16.8 °C 1016.8 in /  34428.8 hPa North 4.8 mph /  7.7 km/h 14.5 mph /  23.3 km/h 82 % 0.0 in /  0 mm
15:02 4.6 °F /  -15.2 °C 2.0 °F /  -16.7 °C 1016.8 in /  34428.8 hPa NNE 11.3 mph /  18.2 km/h 14.5 mph /  23.3 km/h 83 % 0.0 in /  0 mm
15:07 4.6 °F /  -15.2 °C 1.6 °F /  -16.9 °C 1016.8 in /  34428.8 hPa North 6.4 mph /  10.3 km/h 12.9 mph /  20.8 km/h 81 % 0.0 in /  0 mm
15:12 4.6 °F /  -15.2 °C 1.8 °F /  -16.8 °C 1017.2 in /  34442.4 hPa North 4.8 mph /  7.7 km/h 12.9 mph /  20.8 km/h 82 % 0.0 in /  0 mm
15:17 4.6 °F /  -15.2 °C 1.8 °F /  -16.8 °C 1017.2 in /  34442.4 hPa NNE 4.8 mph /  7.7 km/h 11.3 mph /  18.2 km/h 82 % 0.0 in /  0 mm
15:22 4.5 °F /  -15.3 °C 1.7 °F /  -16.8 °C 1017.2 in /  34442.4 hPa ENE 1.6 mph /  2.6 km/h 12.9 mph /  20.8 km/h 82 % 0.0 in /  0 mm
15:27 4.4 °F /  -15.3 °C 1.6 °F /  -16.9 °C 1017.2 in /  34442.4 hPa NE 8.0 mph /  12.9 km/h 12.9 mph /  20.8 km/h 82 % 0.0 in /  0 mm
15:32 4.4 °F /  -15.3 °C 1.9 °F /  -16.7 °C 1016.8 in /  34428.8 hPa Calm   12.9 mph /  20.8 km/h 84 % 0.0 in /  0 mm
15:37 4.3 °F /  -15.4 °C 1.7 °F /  -16.8 °C 1017.2 in /  34442.4 hPa North 4.8 mph /  7.7 km/h 12.9 mph /  20.8 km/h 83 % 0.0 in /  0 mm
15:42 4.3 °F /  -15.4 °C 1.7 °F /  -16.8 °C 1017.2 in /  34442.4 hPa NNE 4.8 mph /  7.7 km/h 14.5 mph /  23.3 km/h 83 % 0.0 in /  0 mm
15:47 4.4 °F /  -15.3 °C 1.9 °F /  -16.7 °C 1017.2 in /  34442.4 hPa NNW 4.8 mph /  7.7 km/h 14.5 mph /  23.3 km/h 84 % 0.0 in /  0 mm
15:52 4.3 °F /  -15.4 °C 1.7 °F /  -16.8 °C 1017.2 in /  34442.4 hPa NNW 8.0 mph /  12.9 km/h 12.9 mph /  20.8 km/h 83 % 0.0 in /  0 mm
15:57 4.3 °F /  -15.4 °C 1.7 °F /  -16.8 °C 1017.2 in /  34442.4 hPa North 9.7 mph /  15.6 km/h 14.5 mph /  23.3 km/h 83 % 0.0 in /  0 mm
16:02 4.2 °F /  -15.4 °C 1.6 °F /  -16.9 °C 1016.8 in /  34428.8 hPa NNW 8.0 mph /  12.9 km/h 14.5 mph /  23.3 km/h 83 % 0.0 in /  0 mm
16:07 4.3 °F /  -15.4 °C 1.8 °F /  -16.8 °C 1017.2 in /  34442.4 hPa North 4.8 mph /  7.7 km/h 14.5 mph /  23.3 km/h 84 % 0.0 in /  0 mm
16:17 4.2 °F /  -15.4 °C 1.6 °F /  -16.9 °C 1017.2 in /  34442.4 hPa NNE 3.2 mph /  5.1 km/h 12.9 mph /  20.8 km/h 83 % 0.0 in /  0 mm
16:22 4.3 °F /  -15.4 °C 1.8 °F /  -16.8 °C 1016.8 in /  34428.8 hPa NNW 4.8 mph /  7.7 km/h 12.9 mph /  20.8 km/h 84 % 0.0 in /  0 mm
16:27 4.4 °F /  -15.3 °C 1.9 °F /  -16.7 °C 1017.2 in /  34442.4 hPa NW 4.8 mph /  7.7 km/h 12.9 mph /  20.8 km/h 84 % 0.0 in /  0 mm
16:32 4.3 °F /  -15.4 °C 1.7 °F /  -16.8 °C 1016.8 in /  34428.8 hPa North 8.0 mph /  12.9 km/h 12.9 mph /  20.8 km/h 83 % 0.0 in /  0 mm
16:42 4.3 °F /  -15.4 °C 1.8 °F /  -16.8 °C 1017.2 in /  34442.4 hPa NNW 6.4 mph /  10.3 km/h 12.9 mph /  20.8 km/h 84 % 0.0 in /  0 mm
16:47 4.2 °F /  -15.4 °C 1.6 °F /  -16.9 °C 1017.2 in /  34442.4 hPa NNW 4.8 mph /  7.7 km/h 12.9 mph /  20.8 km/h 83 % 0.0 in /  0 mm
16:52 4.2 °F /  -15.4 °C 1.7 °F /  -16.8 °C 1017.2 in /  34442.4 hPa NW 8.0 mph /  12.9 km/h 12.9 mph /  20.8 km/h 84 % 0.0 in /  0 mm
16:57 4.1 °F /  -15.5 °C 1.6 °F /  -16.9 °C 1017.2 in /  34442.4 hPa North 6.4 mph /  10.3 km/h 12.9 mph /  20.8 km/h 84 % 0.0 in /  0 mm
17:02 4.1 °F /  -15.5 °C 1.6 °F /  -16.9 °C 1017.2 in /  34442.4 hPa NNW 3.2 mph /  5.1 km/h 16.1 mph /  25.9 km/h 84 % 0.0 in /  0 mm
17:07 3.9 °F /  -15.6 °C 1.4 °F /  -17 °C 1017.2 in /  34442.4 hPa WNW 8.0 mph /  12.9 km/h 16.1 mph /  25.9 km/h 84 % 0.0 in /  0 mm
17:12 3.9 °F /  -15.6 °C 1.6 °F /  -16.9 °C 1017.5 in /  34452.6 hPa NNE 12.9 mph /  20.8 km/h 16.1 mph /  25.9 km/h 85 % 0.0 in /  0 mm
17:17 3.8 °F /  -15.7 °C 1.5 °F /  -16.9 °C 1017.2 in /  34442.4 hPa NNW 3.2 mph /  5.1 km/h 16.1 mph /  25.9 km/h 85 % 0.0 in /  0 mm
17:22 3.8 °F /  -15.7 °C 1.5 °F /  -16.9 °C 1017.2 in /  34442.4 hPa North 4.8 mph /  7.7 km/h 16.1 mph /  25.9 km/h 85 % 0.0 in /  0 mm
17:27 3.7 °F /  -15.7 °C 1.4 °F /  -17 °C 1017.5 in /  34452.6 hPa North 6.4 mph /  10.3 km/h 16.1 mph /  25.9 km/h 85 % 0.0 in /  0 mm
17:32 3.6 °F /  -15.8 °C 1.5 °F /  -16.9 °C 1017.5 in /  34452.6 hPa North 4.8 mph /  7.7 km/h 16.1 mph /  25.9 km/h 86 % 0.0 in /  0 mm
17:37 3.6 °F /  -15.8 °C 1.5 °F /  -16.9 °C 1017.5 in /  34452.6 hPa North 6.4 mph /  10.3 km/h 16.1 mph /  25.9 km/h 86 % 0.0 in /  0 mm
17:42 3.4 °F /  -15.9 °C 1.3 °F /  -17.1 °C 1017.5 in /  34452.6 hPa NNW 6.4 mph /  10.3 km/h 16.1 mph /  25.9 km/h 86 % 0.0 in /  0 mm
17:52 3.3 °F /  -15.9 °C 1.2 °F /  -17.1 °C 1017.5 in /  34452.6 hPa NNE 9.7 mph /  15.6 km/h 16.1 mph /  25.9 km/h 86 % 0.0 in /  0 mm
17:57 3.2 °F /  -16 °C 1.1 °F /  -17.2 °C 1017.5 in /  34452.6 hPa NW 3.2 mph /  5.1 km/h 16.1 mph /  25.9 km/h 86 % 0.0 in /  0 mm
18:02 3.2 °F /  -16 °C 1.2 °F /  -17.1 °C 1017.5 in /  34452.6 hPa NNE 3.2 mph /  5.1 km/h 14.5 mph /  23.3 km/h 87 % 0.0 in /  0 mm
18:07 3.1 °F /  -16.1 °C 1.1 °F /  -17.2 °C 1017.5 in /  34452.6 hPa ENE 1.6 mph /  2.6 km/h 12.9 mph /  20.8 km/h 87 % 0.0 in /  0 mm
18:12 3.0 °F /  -16.1 °C 1.0 °F /  -17.2 °C 1017.5 in /  34452.6 hPa NNW 8.0 mph /  12.9 km/h 12.9 mph /  20.8 km/h 87 % 0.0 in /  0 mm
18:17 2.9 °F /  -16.2 °C 1.0 °F /  -17.2 °C 1017.5 in /  34452.6 hPa North 3.2 mph /  5.1 km/h 12.9 mph /  20.8 km/h 87 % 0.0 in /  0 mm
18:22 2.8 °F /  -16.2 °C 1.0 °F /  -17.2 °C 1017.8 in /  34462.7 hPa NNW 3.2 mph /  5.1 km/h 12.9 mph /  20.8 km/h 88 % 0.0 in /  0 mm
18:27 2.7 °F /  -16.3 °C 0.9 °F /  -17.3 °C 1017.8 in /  34462.7 hPa NNE 1.6 mph /  2.6 km/h 11.3 mph /  18.2 km/h 88 % 0.0 in /  0 mm
18:32 2.7 °F /  -16.3 °C 1.1 °F /  -17.2 °C 1017.8 in /  34462.7 hPa NNW 6.4 mph /  10.3 km/h 11.3 mph /  18.2 km/h 89 % 0.0 in /  0 mm
18:37 2.6 °F /  -16.3 °C 1.0 °F /  -17.2 °C 1017.8 in /  34462.7 hPa NW 4.8 mph /  7.7 km/h 11.3 mph /  18.2 km/h 89 % 0.0 in /  0 mm
18:42 2.6 °F /  -16.3 °C 1.0 °F /  -17.2 °C 1017.8 in /  34462.7 hPa NNW 4.8 mph /  7.7 km/h 11.3 mph /  18.2 km/h 89 % 0.0 in /  0 mm
18:47 2.6 °F /  -16.3 °C 1.0 °F /  -17.2 °C 1017.8 in /  34462.7 hPa North 4.8 mph /  7.7 km/h 11.3 mph /  18.2 km/h 89 % 0.0 in /  0 mm
18:52 2.6 °F /  -16.3 °C 1.0 °F /  -17.2 °C 1017.8 in /  34462.7 hPa NNW 8.0 mph /  12.9 km/h 14.5 mph /  23.3 km/h 89 % 0.0 in /  0 mm
18:57 2.6 °F /  -16.3 °C 1.0 °F /  -17.2 °C 1017.8 in /  34462.7 hPa NW 1.6 mph /  2.6 km/h 14.5 mph /  23.3 km/h 89 % 0.0 in /  0 mm
19:02 2.5 °F /  -16.4 °C 0.9 °F /  -17.3 °C 1017.8 in /  34462.7 hPa NNW 8.0 mph /  12.9 km/h 14.5 mph /  23.3 km/h 89 % 0.0 in /  0 mm
19:07 2.4 °F /  -16.4 °C 0.8 °F /  -17.3 °C 1017.8 in /  34462.7 hPa NNW 4.8 mph /  7.7 km/h 14.5 mph /  23.3 km/h 89 % 0.0 in /  0 mm
19:12 2.4 °F /  -16.4 °C 0.8 °F /  -17.3 °C 1017.8 in /  34462.7 hPa North 4.8 mph /  7.7 km/h 14.5 mph /  23.3 km/h 89 % 0.0 in /  0 mm
19:17 2.4 °F /  -16.4 °C 0.8 °F /  -17.3 °C 1017.8 in /  34462.7 hPa NNW 4.8 mph /  7.7 km/h 11.3 mph /  18.2 km/h 89 % 0.0 in /  0 mm
19:22 2.4 °F /  -16.4 °C 0.8 °F /  -17.3 °C 1017.8 in /  34462.7 hPa NNW 4.8 mph /  7.7 km/h 11.3 mph /  18.2 km/h 89 % 0.0 in /  0 mm
19:27 2.4 °F /  -16.4 °C 0.9 °F /  -17.3 °C 1017.8 in /  34462.7 hPa NW 1.6 mph /  2.6 km/h 11.3 mph /  18.2 km/h 90 % 0.0 in /  0 mm
19:32 2.4 °F /  -16.4 °C 0.9 °F /  -17.3 °C 1017.8 in /  34462.7 hPa NW 4.8 mph /  7.7 km/h 11.3 mph /  18.2 km/h 90 % 0.0 in /  0 mm
19:37 2.4 °F /  -16.4 °C 0.9 °F /  -17.3 °C 1017.8 in /  34462.7 hPa NNE 6.4 mph /  10.3 km/h 11.3 mph /  18.2 km/h 90 % 0.0 in /  0 mm
19:42 2.4 °F /  -16.4 °C 0.9 °F /  -17.3 °C 1017.8 in /  34462.7 hPa NW 4.8 mph /  7.7 km/h 11.3 mph /  18.2 km/h 90 % 0.0 in /  0 mm
19:52 2.3 °F /  -16.5 °C 0.8 °F /  -17.3 °C 1017.8 in /  34462.7 hPa NNW 3.2 mph /  5.1 km/h 12.9 mph /  20.8 km/h 90 % 0.0 in /  0 mm
19:57 2.2 °F /  -16.6 °C 0.7 °F /  -17.4 °C 1017.8 in /  34462.7 hPa NNE 6.4 mph /  10.3 km/h 12.9 mph /  20.8 km/h 90 % 0.0 in /  0 mm
20:02 2.2 °F /  -16.6 °C 0.7 °F /  -17.4 °C 1018.2 in /  34476.3 hPa NNW 3.2 mph /  5.1 km/h 12.9 mph /  20.8 km/h 90 % 0.0 in /  0 mm
20:07 2.1 °F /  -16.6 °C 0.6 °F /  -17.4 °C 1018.2 in /  34476.3 hPa NNW 3.2 mph /  5.1 km/h 11.3 mph /  18.2 km/h 90 % 0.0 in /  0 mm
20:12 2.1 °F /  -16.6 °C 0.6 °F /  -17.4 °C 1017.8 in /  34462.7 hPa North 4.8 mph /  7.7 km/h 11.3 mph /  18.2 km/h 90 % 0.0 in /  0 mm
20:17 2.0 °F /  -16.7 °C 0.7 °F /  -17.4 °C 1018.2 in /  34476.3 hPa NNW 6.4 mph /  10.3 km/h 14.5 mph /  23.3 km/h 91 % 0.0 in /  0 mm
20:22 1.9 °F /  -16.7 °C 0.6 °F /  -17.4 °C 1017.8 in /  34462.7 hPa NW 4.8 mph /  7.7 km/h 14.5 mph /  23.3 km/h 91 % 0.0 in /  0 mm
20:27 1.9 °F /  -16.7 °C 0.6 °F /  -17.4 °C 1018.2 in /  34476.3 hPa NW 4.8 mph /  7.7 km/h 14.5 mph /  23.3 km/h 91 % 0.0 in /  0 mm
20:37 1.7 °F /  -16.8 °C 0.4 °F /  -17.6 °C 1018.2 in /  34476.3 hPa NW 4.8 mph /  7.7 km/h 11.3 mph /  18.2 km/h 91 % 0.0 in /  0 mm
20:42 1.7 °F /  -16.8 °C 0.4 °F /  -17.6 °C 1018.2 in /  34476.3 hPa NNW 4.8 mph /  7.7 km/h 8.0 mph /  12.9 km/h 91 % 0.0 in /  0 mm
20:47 1.7 °F /  -16.8 °C 0.4 °F /  -17.6 °C 1017.8 in /  34462.7 hPa NW 3.2 mph /  5.1 km/h 8.0 mph /  12.9 km/h 91 % 0.0 in /  0 mm
20:57 1.5 °F /  -16.9 °C 0.2 °F /  -17.7 °C 1018.2 in /  34476.3 hPa North 3.2 mph /  5.1 km/h 8.0 mph /  12.9 km/h 91 % 0.0 in /  0 mm
21:02 1.4 °F /  -17 °C 0.2 °F /  -17.7 °C 1017.8 in /  34462.7 hPa NNW 1.6 mph /  2.6 km/h 8.0 mph /  12.9 km/h 92 % 0.0 in /  0 mm
21:12 1.4 °F /  -17 °C 0.2 °F /  -17.7 °C 1017.8 in /  34462.7 hPa NNW 1.6 mph /  2.6 km/h 8.0 mph /  12.9 km/h 92 % 0.0 in /  0 mm
21:17 1.4 °F /  -17 °C 0.2 °F /  -17.7 °C 1017.8 in /  34462.7 hPa NNW 3.2 mph /  5.1 km/h 8.0 mph /  12.9 km/h 92 % 0.0 in /  0 mm
21:22 1.4 °F /  -17 °C 0.2 °F /  -17.7 °C 1018.2 in /  34476.3 hPa NNW 3.2 mph /  5.1 km/h 8.0 mph /  12.9 km/h 92 % 0.0 in /  0 mm
21:32 1.5 °F /  -16.9 °C 0.3 °F /  -17.6 °C 1018.2 in /  34476.3 hPa NW 1.6 mph /  2.6 km/h 12.9 mph /  20.8 km/h 92 % 0.0 in /  0 mm
21:37 1.5 °F /  -16.9 °C 0.3 °F /  -17.6 °C 1017.8 in /  34462.7 hPa NNW 4.8 mph /  7.7 km/h 12.9 mph /  20.8 km/h 92 % 0.0 in /  0 mm
21:42 1.6 °F /  -16.9 °C 0.4 °F /  -17.6 °C 1018.2 in /  34476.3 hPa NW 8.0 mph /  12.9 km/h 12.9 mph /  20.8 km/h 92 % 0.0 in /  0 mm
21:47 1.6 °F /  -16.9 °C 0.4 °F /  -17.6 °C 1018.2 in /  34476.3 hPa NNW 6.4 mph /  10.3 km/h 12.9 mph /  20.8 km/h 92 % 0.0 in /  0 mm
21:57 1.6 °F /  -16.9 °C 0.4 °F /  -17.6 °C 1018.2 in /  34476.3 hPa NNW 8.0 mph /  12.9 km/h 12.9 mph /  20.8 km/h 92 % 0.0 in /  0 mm
22:02 1.6 °F /  -16.9 °C 0.4 °F /  -17.6 °C 1018.2 in /  34476.3 hPa North 9.7 mph /  15.6 km/h 16.1 mph /  25.9 km/h 92 % 0.0 in /  0 mm
22:07 1.7 °F /  -16.8 °C 0.5 °F /  -17.5 °C 1018.2 in /  34476.3 hPa NNW 9.7 mph /  15.6 km/h 16.1 mph /  25.9 km/h 92 % 0.0 in /  0 mm
22:12 1.7 °F /  -16.8 °C 0.5 °F /  -17.5 °C 1018.2 in /  34476.3 hPa North 8.0 mph /  12.9 km/h 16.1 mph /  25.9 km/h 92 % 0.0 in /  0 mm
22:17 1.6 °F /  -16.9 °C 0.4 °F /  -17.6 °C 1018.2 in /  34476.3 hPa NNW 8.0 mph /  12.9 km/h 12.9 mph /  20.8 km/h 92 % 0.0 in /  0 mm
22:22 1.6 °F /  -16.9 °C 0.4 °F /  -17.6 °C 1018.2 in /  34476.3 hPa North 9.7 mph /  15.6 km/h 12.9 mph /  20.8 km/h 92 % 0.0 in /  0 mm
22:32 1.6 °F /  -16.9 °C 0.4 °F /  -17.6 °C 1018.5 in /  34486.4 hPa North 4.8 mph /  7.7 km/h 14.5 mph /  23.3 km/h 92 % 0.0 in /  0 mm
22:37 1.6 °F /  -16.9 °C 0.4 °F /  -17.6 °C 1018.5 in /  34486.4 hPa NW 6.4 mph /  10.3 km/h 14.5 mph /  23.3 km/h 92 % 0.0 in /  0 mm
22:42 1.6 °F /  -16.9 °C 0.4 °F /  -17.6 °C 1018.5 in /  34486.4 hPa NW 8.0 mph /  12.9 km/h 14.5 mph /  23.3 km/h 92 % 0.0 in /  0 mm
22:47 1.6 °F /  -16.9 °C 0.4 °F /  -17.6 °C 1018.5 in /  34486.4 hPa NNW 6.4 mph /  10.3 km/h 14.5 mph /  23.3 km/h 92 % 0.0 in /  0 mm
22:52 1.6 °F /  -16.9 °C 0.4 °F /  -17.6 °C 1018.5 in /  34486.4 hPa NNW 4.8 mph /  7.7 km/h 14.5 mph /  23.3 km/h 92 % 0.0 in /  0 mm
22:57 1.6 °F /  -16.9 °C 0.3 °F /  -17.6 °C 1018.5 in /  34486.4 hPa NNE 8.0 mph /  12.9 km/h 14.5 mph /  23.3 km/h 91 % 0.0 in /  0 mm
23:02 1.6 °F /  -16.9 °C 0.3 °F /  -17.6 °C 1018.8 in /  34496.6 hPa NNW 3.2 mph /  5.1 km/h 12.9 mph /  20.8 km/h 91 % 0.0 in /  0 mm
23:07 1.6 °F /  -16.9 °C 0.3 °F /  -17.6 °C 1018.5 in /  34486.4 hPa NNW 4.8 mph /  7.7 km/h 12.9 mph /  20.8 km/h 91 % 0.0 in /  0 mm
23:12 1.6 °F /  -16.9 °C 0.3 °F /  -17.6 °C 1018.5 in /  34486.4 hPa NNE 4.8 mph /  7.7 km/h 12.9 mph /  20.8 km/h 91 % 0.0 in /  0 mm
23:17 1.6 °F /  -16.9 °C 0.3 °F /  -17.6 °C 1018.5 in /  34486.4 hPa NNW 8.0 mph /  12.9 km/h 14.5 mph /  23.3 km/h 91 % 0.0 in /  0 mm
23:22 1.6 °F /  -16.9 °C 0.3 °F /  -17.6 °C 1018.5 in /  34486.4 hPa NNW 3.2 mph /  5.1 km/h 14.5 mph /  23.3 km/h 91 % 0.0 in /  0 mm
23:32 1.6 °F /  -16.9 °C 0.3 °F /  -17.6 °C 1018.8 in /  34496.6 hPa NNE 6.4 mph /  10.3 km/h 12.9 mph /  20.8 km/h 91 % 0.0 in /  0 mm
23:42 1.6 °F /  -16.9 °C 0.3 °F /  -17.6 °C 1018.8 in /  34496.6 hPa NNE 6.4 mph /  10.3 km/h 11.3 mph /  18.2 km/h 91 % 0.0 in /  0 mm
23:47 1.6 °F /  -16.9 °C 0.3 °F /  -17.6 °C 1018.8 in /  34496.6 hPa North 4.8 mph /  7.7 km/h 14.5 mph /  23.3 km/h 91 % 0.0 in /  0 mm
23:52 1.6 °F /  -16.9 °C 0.3 °F /  -17.6 °C 1018.8 in /  34496.6 hPa NNE 4.8 mph /  7.7 km/h 14.5 mph /  23.3 km/h 91 % 0.0 in /  0 mm
23:57 1.6 °F /  -16.9 °C 0.3 °F /  -17.6 °C 1018.8 in /  34496.6 hPa NNW 6.4 mph /  10.3 km/h 14.5 mph /  23.3 km/h 91 % 0.0 in /  0 mm
Meteo18
Compliments of Weather Underground - 4 mb

Script developed by  Jim McMurry - jmcmurry@mwt.net Adapted for the template by  Wim van der Kuil - Leuven-Template.eu

You find our weather info also at:

European Weather Network

Weather Underground

Equipment we use:

Weather-station
Davis Vue

Weather-program
Meteobridge

Weather-server
Raspberry PI 2 B+

Provider
1 and 1

Davis Vue

Meteobridge

Raspberry PI 2 B+

1 and 1